sensor_id;sensor_type;location;lat;lon;timestamp;P1;durP1;ratioP1;P2;durP2;ratioP2
62927;SDS011;51070;52.236;-0.892;2023-05-27T00:00:05;11.70;;;3.30;;
62927;SDS011;51070;52.236;-0.892;2023-05-27T00:02:33;8.40;;;3.00;;
62927;SDS011;51070;52.236;-0.892;2023-05-27T00:04:58;6.80;;;2.60;;
62927;SDS011;51070;52.236;-0.892;2023-05-27T00:07:24;9.60;;;3.20;;
62927;SDS011;51070;52.236;-0.892;2023-05-27T00:09:50;11.90;;;3.50;;
62927;SDS011;51070;52.236;-0.892;2023-05-27T00:12:16;8.40;;;3.80;;
62927;SDS011;51070;52.236;-0.892;2023-05-27T00:14:42;11.60;;;4.20;;
62927;SDS011;51070;52.236;-0.892;2023-05-27T00:17:08;11.30;;;4.10;;
62927;SDS011;51070;52.236;-0.892;2023-05-27T00:19:34;13.10;;;3.80;;
62927;SDS011;51070;52.236;-0.892;2023-05-27T00:22:00;12.50;;;4.80;;
62927;SDS011;51070;52.236;-0.892;2023-05-27T00:24:26;10.30;;;4.20;;
62927;SDS011;51070;52.236;-0.892;2023-05-27T00:26:52;10.60;;;3.60;;
62927;SDS011;51070;52.236;-0.892;2023-05-27T00:29:17;11.20;;;3.90;;
62927;SDS011;51070;52.236;-0.892;2023-05-27T00:31:43;10.90;;;4.30;;
62927;SDS011;51070;52.236;-0.892;2023-05-27T00:34:09;12.20;;;4.20;;
62927;SDS011;51070;52.236;-0.892;2023-05-27T00:36:34;16.10;;;4.60;;
62927;SDS011;51070;52.236;-0.892;2023-05-27T00:39:00;12.60;;;4.10;;
62927;SDS011;51070;52.236;-0.892;2023-05-27T00:41:26;11.70;;;3.60;;
62927;SDS011;51070;52.236;-0.892;2023-05-27T00:43:52;7.40;;;3.30;;
62927;SDS011;51070;52.236;-0.892;2023-05-27T00:46:18;12.90;;;3.80;;
62927;SDS011;51070;52.236;-0.892;2023-05-27T00:48:45;13.60;;;3.70;;
62927;SDS011;51070;52.236;-0.892;2023-05-27T00:51:12;9.80;;;3.30;;
62927;SDS011;51070;52.236;-0.892;2023-05-27T00:53:41;10.60;;;3.60;;
62927;SDS011;51070;52.236;-0.892;2023-05-27T00:56:09;8.80;;;3.00;;
62927;SDS011;51070;52.236;-0.892;2023-05-27T00:58:36;15.40;;;3.80;;
62927;SDS011;51070;52.236;-0.892;2023-05-27T01:01:03;12.80;;;3.60;;
62927;SDS011;51070;52.236;-0.892;2023-05-27T01:03:32;12.00;;;3.00;;
62927;SDS011;51070;52.236;-0.892;2023-05-27T01:11:17;9.00;;;3.20;;
62927;SDS011;51070;52.236;-0.892;2023-05-27T01:13:50;10.70;;;3.50;;
62927;SDS011;51070;52.236;-0.892;2023-05-27T01:16:20;18.80;;;4.20;;
62927;SDS011;51070;52.236;-0.892;2023-05-27T01:18:49;15.40;;;4.70;;
62927;SDS011;51070;52.236;-0.892;2023-05-27T01:21:18;10.40;;;3.40;;
62927;SDS011;51070;52.236;-0.892;2023-05-27T01:23:47;11.50;;;4.40;;
62927;SDS011;51070;52.236;-0.892;2023-05-27T01:26:14;8.30;;;3.20;;
62927;SDS011;51070;52.236;-0.892;2023-05-27T01:28:40;9.40;;;3.60;;
62927;SDS011;51070;52.236;-0.892;2023-05-27T01:31:10;10.70;;;3.90;;
62927;SDS011;51070;52.236;-0.892;2023-05-27T01:33:40;10.70;;;3.50;;
62927;SDS011;51070;52.236;-0.892;2023-05-27T01:36:10;10.80;;;3.90;;
62927;SDS011;51070;52.236;-0.892;2023-05-27T01:38:40;13.20;;;4.20;;
62927;SDS011;51070;52.236;-0.892;2023-05-27T01:41:08;9.60;;;3.80;;
62927;SDS011;51070;52.236;-0.892;2023-05-27T01:43:36;11.20;;;3.60;;
62927;SDS011;51070;52.236;-0.892;2023-05-27T01:46:03;12.00;;;3.20;;
62927;SDS011;51070;52.236;-0.892;2023-05-27T01:48:29;8.40;;;3.80;;
62927;SDS011;51070;52.236;-0.892;2023-05-27T01:50:54;9.20;;;3.00;;
62927;SDS011;51070;52.236;-0.892;2023-05-27T01:53:20;11.90;;;4.00;;
62927;SDS011;51070;52.236;-0.892;2023-05-27T01:55:45;13.30;;;3.40;;
62927;SDS011;51070;52.236;-0.892;2023-05-27T01:58:11;11.00;;;3.70;;
62927;SDS011;51070;52.236;-0.892;2023-05-27T02:00:36;14.70;;;3.60;;
62927;SDS011;51070;52.236;-0.892;2023-05-27T02:03:02;10.00;;;3.20;;
62927;SDS011;51070;52.236;-0.892;2023-05-27T02:05:27;8.60;;;3.40;;
62927;SDS011;51070;52.236;-0.892;2023-05-27T02:07:52;10.40;;;3.50;;
62927;SDS011;51070;52.236;-0.892;2023-05-27T02:10:18;11.30;;;3.30;;
62927;SDS011;51070;52.236;-0.892;2023-05-27T02:12:43;10.50;;;3.80;;
62927;SDS011;51070;52.236;-0.892;2023-05-27T02:15:09;10.70;;;4.20;;
62927;SDS011;51070;52.236;-0.892;2023-05-27T02:17:34;10.70;;;3.10;;
62927;SDS011;51070;52.236;-0.892;2023-05-27T02:20:00;10.80;;;4.30;;
62927;SDS011;51070;52.236;-0.892;2023-05-27T02:22:26;13.60;;;3.40;;
62927;SDS011;51070;52.236;-0.892;2023-05-27T02:24:52;10.70;;;4.10;;
62927;SDS011;51070;52.236;-0.892;2023-05-27T02:27:17;11.40;;;3.60;;
62927;SDS011;51070;52.236;-0.892;2023-05-27T02:29:43;10.50;;;3.20;;
62927;SDS011;51070;52.236;-0.892;2023-05-27T02:32:08;11.30;;;3.10;;
62927;SDS011;51070;52.236;-0.892;2023-05-27T02:34:33;10.80;;;4.10;;
62927;SDS011;51070;52.236;-0.892;2023-05-27T02:37:02;13.00;;;3.50;;
62927;SDS011;51070;52.236;-0.892;2023-05-27T02:39:29;17.50;;;4.70;;
62927;SDS011;51070;52.236;-0.892;2023-05-27T02:41:55;16.50;;;3.40;;
62927;SDS011;51070;52.236;-0.892;2023-05-27T02:44:20;15.40;;;3.90;;
62927;SDS011;51070;52.236;-0.892;2023-05-27T02:46:46;10.20;;;3.60;;
62927;SDS011;51070;52.236;-0.892;2023-05-27T02:49:11;14.70;;;3.10;;
62927;SDS011;51070;52.236;-0.892;2023-05-27T02:51:37;13.30;;;3.40;;
62927;SDS011;51070;52.236;-0.892;2023-05-27T02:54:03;14.20;;;3.70;;
62927;SDS011;51070;52.236;-0.892;2023-05-27T02:56:28;10.50;;;3.80;;
62927;SDS011;51070;52.236;-0.892;2023-05-27T02:58:54;10.50;;;3.80;;
62927;SDS011;51070;52.236;-0.892;2023-05-27T03:01:19;15.70;;;4.10;;
62927;SDS011;51070;52.236;-0.892;2023-05-27T03:03:45;13.10;;;4.40;;
62927;SDS011;51070;52.236;-0.892;2023-05-27T03:06:11;16.80;;;4.70;;
62927;SDS011;51070;52.236;-0.892;2023-05-27T03:08:36;8.20;;;3.90;;
62927;SDS011;51070;52.236;-0.892;2023-05-27T03:11:02;13.70;;;3.60;;
62927;SDS011;51070;52.236;-0.892;2023-05-27T03:13:27;13.70;;;3.90;;
62927;SDS011;51070;52.236;-0.892;2023-05-27T03:15:53;13.50;;;4.10;;
62927;SDS011;51070;52.236;-0.892;2023-05-27T03:18:19;22.20;;;3.80;;
62927;SDS011;51070;52.236;-0.892;2023-05-27T03:20:46;14.70;;;4.00;;
62927;SDS011;51070;52.236;-0.892;2023-05-27T03:23:12;15.30;;;5.00;;
62927;SDS011;51070;52.236;-0.892;2023-05-27T03:25:37;11.60;;;4.00;;
62927;SDS011;51070;52.236;-0.892;2023-05-27T03:28:03;13.70;;;4.80;;
62927;SDS011;51070;52.236;-0.892;2023-05-27T03:30:28;12.60;;;4.00;;
62927;SDS011;51070;52.236;-0.892;2023-05-27T03:32:53;13.00;;;4.10;;
62927;SDS011;51070;52.236;-0.892;2023-05-27T03:35:19;11.50;;;3.40;;
62927;SDS011;51070;52.236;-0.892;2023-05-27T03:37:44;10.60;;;3.60;;
62927;SDS011;51070;52.236;-0.892;2023-05-27T03:40:11;10.70;;;3.40;;
62927;SDS011;51070;52.236;-0.892;2023-05-27T03:42:37;12.50;;;3.70;;
62927;SDS011;51070;52.236;-0.892;2023-05-27T03:45:03;10.90;;;3.50;;
62927;SDS011;51070;52.236;-0.892;2023-05-27T03:47:29;15.00;;;4.20;;
62927;SDS011;51070;52.236;-0.892;2023-05-27T03:49:54;10.20;;;3.60;;
62927;SDS011;51070;52.236;-0.892;2023-05-27T03:52:20;10.60;;;3.50;;
62927;SDS011;51070;52.236;-0.892;2023-05-27T03:54:45;15.10;;;4.20;;
62927;SDS011;51070;52.236;-0.892;2023-05-27T03:57:11;11.50;;;3.70;;
62927;SDS011;51070;52.236;-0.892;2023-05-27T03:59:36;11.40;;;4.80;;
62927;SDS011;51070;52.236;-0.892;2023-05-27T04:02:02;10.40;;;4.20;;
62927;SDS011;51070;52.236;-0.892;2023-05-27T04:04:28;17.90;;;4.10;;
62927;SDS011;51070;52.236;-0.892;2023-05-27T04:06:53;13.90;;;4.10;;
62927;SDS011;51070;52.236;-0.892;2023-05-27T04:09:20;12.90;;;4.10;;
62927;SDS011;51070;52.236;-0.892;2023-05-27T04:11:46;13.50;;;4.70;;
62927;SDS011;51070;52.236;-0.892;2023-05-27T04:14:11;16.50;;;4.00;;
62927;SDS011;51070;52.236;-0.892;2023-05-27T04:16:37;13.50;;;3.90;;
62927;SDS011;51070;52.236;-0.892;2023-05-27T04:19:03;13.10;;;4.30;;
62927;SDS011;51070;52.236;-0.892;2023-05-27T04:21:28;14.70;;;4.20;;
62927;SDS011;51070;52.236;-0.892;2023-05-27T04:23:54;10.80;;;4.00;;
62927;SDS011;51070;52.236;-0.892;2023-05-27T04:26:19;15.10;;;5.20;;
62927;SDS011;51070;52.236;-0.892;2023-05-27T04:28:45;13.50;;;4.70;;
62927;SDS011;51070;52.236;-0.892;2023-05-27T04:31:11;9.20;;;3.70;;
62927;SDS011;51070;52.236;-0.892;2023-05-27T04:33:39;16.70;;;4.10;;
62927;SDS011;51070;52.236;-0.892;2023-05-27T04:36:07;13.80;;;4.60;;
62927;SDS011;51070;52.236;-0.892;2023-05-27T04:38:33;13.00;;;3.40;;
62927;SDS011;51070;52.236;-0.892;2023-05-27T04:40:59;14.00;;;4.00;;
62927;SDS011;51070;52.236;-0.892;2023-05-27T04:43:25;19.00;;;5.40;;
62927;SDS011;51070;52.236;-0.892;2023-05-27T04:45:55;13.00;;;4.40;;
62927;SDS011;51070;52.236;-0.892;2023-05-27T04:48:22;14.10;;;4.30;;
62927;SDS011;51070;52.236;-0.892;2023-05-27T04:50:51;12.90;;;4.00;;
62927;SDS011;51070;52.236;-0.892;2023-05-27T04:53:20;12.50;;;4.00;;
62927;SDS011;51070;52.236;-0.892;2023-05-27T04:55:46;16.50;;;4.70;;
62927;SDS011;51070;52.236;-0.892;2023-05-27T04:58:11;16.40;;;4.90;;
62927;SDS011;51070;52.236;-0.892;2023-05-27T05:00:37;14.10;;;3.70;;
62927;SDS011;51070;52.236;-0.892;2023-05-27T05:03:20;9.70;;;3.60;;
62927;SDS011;51070;52.236;-0.892;2023-05-27T05:05:48;14.00;;;4.00;;
62927;SDS011;51070;52.236;-0.892;2023-05-27T05:08:16;20.20;;;5.70;;
62927;SDS011;51070;52.236;-0.892;2023-05-27T05:10:41;17.20;;;5.40;;
62927;SDS011;51070;52.236;-0.892;2023-05-27T05:13:07;15.10;;;4.60;;
62927;SDS011;51070;52.236;-0.892;2023-05-27T05:15:33;11.10;;;3.70;;
62927;SDS011;51070;52.236;-0.892;2023-05-27T05:17:59;11.50;;;4.20;;
62927;SDS011;51070;52.236;-0.892;2023-05-27T05:20:24;13.30;;;4.50;;
62927;SDS011;51070;52.236;-0.892;2023-05-27T05:22:50;13.40;;;4.80;;
62927;SDS011;51070;52.236;-0.892;2023-05-27T05:25:16;12.50;;;4.10;;
62927;SDS011;51070;52.236;-0.892;2023-05-27T05:27:41;13.40;;;4.50;;
62927;SDS011;51070;52.236;-0.892;2023-05-27T05:30:07;10.10;;;4.20;;
62927;SDS011;51070;52.236;-0.892;2023-05-27T05:32:33;18.10;;;5.10;;
62927;SDS011;51070;52.236;-0.892;2023-05-27T05:34:58;14.70;;;4.70;;
62927;SDS011;51070;52.236;-0.892;2023-05-27T05:37:24;15.10;;;4.50;;
62927;SDS011;51070;52.236;-0.892;2023-05-27T05:39:49;16.40;;;4.80;;
62927;SDS011;51070;52.236;-0.892;2023-05-27T05:42:15;16.00;;;3.80;;
62927;SDS011;51070;52.236;-0.892;2023-05-27T05:44:41;17.70;;;5.30;;
62927;SDS011;51070;52.236;-0.892;2023-05-27T05:47:06;16.50;;;5.20;;
62927;SDS011;51070;52.236;-0.892;2023-05-27T05:49:32;13.70;;;4.40;;
62927;SDS011;51070;52.236;-0.892;2023-05-27T05:51:57;19.00;;;5.20;;
62927;SDS011;51070;52.236;-0.892;2023-05-27T05:54:23;12.70;;;4.60;;
62927;SDS011;51070;52.236;-0.892;2023-05-27T05:56:48;15.20;;;5.50;;
62927;SDS011;51070;52.236;-0.892;2023-05-27T05:59:13;16.90;;;5.60;;
62927;SDS011;51070;52.236;-0.892;2023-05-27T06:01:39;14.30;;;4.20;;
62927;SDS011;51070;52.236;-0.892;2023-05-27T06:04:04;13.40;;;4.00;;
62927;SDS011;51070;52.236;-0.892;2023-05-27T06:06:31;15.70;;;4.50;;
62927;SDS011;51070;52.236;-0.892;2023-05-27T06:08:57;16.50;;;4.20;;
62927;SDS011;51070;52.236;-0.892;2023-05-27T06:11:22;14.70;;;4.90;;
62927;SDS011;51070;52.236;-0.892;2023-05-27T06:13:48;15.50;;;4.60;;
62927;SDS011;51070;52.236;-0.892;2023-05-27T06:16:13;15.20;;;4.90;;
62927;SDS011;51070;52.236;-0.892;2023-05-27T06:18:38;13.00;;;5.20;;
62927;SDS011;51070;52.236;-0.892;2023-05-27T06:21:04;14.30;;;4.40;;
62927;SDS011;51070;52.236;-0.892;2023-05-27T06:23:29;17.10;;;6.10;;
62927;SDS011;51070;52.236;-0.892;2023-05-27T06:25:55;13.40;;;5.00;;
62927;SDS011;51070;52.236;-0.892;2023-05-27T06:28:20;18.50;;;5.50;;
62927;SDS011;51070;52.236;-0.892;2023-05-27T06:30:46;14.70;;;4.70;;
62927;SDS011;51070;52.236;-0.892;2023-05-27T06:33:11;18.70;;;4.80;;
62927;SDS011;51070;52.236;-0.892;2023-05-27T06:35:36;12.60;;;4.90;;
62927;SDS011;51070;52.236;-0.892;2023-05-27T06:38:02;10.30;;;4.70;;
62927;SDS011;51070;52.236;-0.892;2023-05-27T06:40:27;12.50;;;4.80;;
62927;SDS011;51070;52.236;-0.892;2023-05-27T06:42:53;11.80;;;4.10;;
62927;SDS011;51070;52.236;-0.892;2023-05-27T06:45:19;12.80;;;4.20;;
62927;SDS011;51070;52.236;-0.892;2023-05-27T06:47:44;12.60;;;5.20;;
62927;SDS011;51070;52.236;-0.892;2023-05-27T06:50:10;12.80;;;5.20;;
62927;SDS011;51070;52.236;-0.892;2023-05-27T06:52:36;11.30;;;4.50;;
62927;SDS011;51070;52.236;-0.892;2023-05-27T06:55:01;11.30;;;4.70;;
62927;SDS011;51070;52.236;-0.892;2023-05-27T06:57:27;12.70;;;5.40;;
62927;SDS011;51070;52.236;-0.892;2023-05-27T06:59:52;11.20;;;4.70;;
62927;SDS011;51070;52.236;-0.892;2023-05-27T07:02:17;14.80;;;4.90;;
62927;SDS011;51070;52.236;-0.892;2023-05-27T07:04:43;11.80;;;4.90;;
62927;SDS011;51070;52.236;-0.892;2023-05-27T07:07:08;10.50;;;4.70;;
62927;SDS011;51070;52.236;-0.892;2023-05-27T07:09:34;10.00;;;4.30;;
62927;SDS011;51070;52.236;-0.892;2023-05-27T07:12:00;14.00;;;5.40;;
62927;SDS011;51070;52.236;-0.892;2023-05-27T07:14:26;12.90;;;5.30;;
62927;SDS011;51070;52.236;-0.892;2023-05-27T07:16:52;16.50;;;5.70;;
62927;SDS011;51070;52.236;-0.892;2023-05-27T07:19:17;14.50;;;5.40;;
62927;SDS011;51070;52.236;-0.892;2023-05-27T07:21:43;16.40;;;5.20;;
62927;SDS011;51070;52.236;-0.892;2023-05-27T07:24:08;11.70;;;5.20;;
62927;SDS011;51070;52.236;-0.892;2023-05-27T07:26:33;12.00;;;5.30;;
62927;SDS011;51070;52.236;-0.892;2023-05-27T07:29:00;13.00;;;5.00;;
62927;SDS011;51070;52.236;-0.892;2023-05-27T07:31:26;14.10;;;5.60;;
62927;SDS011;51070;52.236;-0.892;2023-05-27T07:33:53;14.20;;;5.60;;
62927;SDS011;51070;52.236;-0.892;2023-05-27T07:36:18;13.30;;;5.40;;
62927;SDS011;51070;52.236;-0.892;2023-05-27T07:38:44;16.80;;;4.90;;
62927;SDS011;51070;52.236;-0.892;2023-05-27T07:41:10;13.60;;;5.40;;
62927;SDS011;51070;52.236;-0.892;2023-05-27T07:43:36;11.00;;;4.70;;
62927;SDS011;51070;52.236;-0.892;2023-05-27T07:46:02;13.50;;;4.30;;
62927;SDS011;51070;52.236;-0.892;2023-05-27T07:48:28;12.90;;;4.50;;
62927;SDS011;51070;52.236;-0.892;2023-05-27T07:50:54;9.00;;;3.50;;
62927;SDS011;51070;52.236;-0.892;2023-05-27T07:53:20;9.00;;;4.10;;
62927;SDS011;51070;52.236;-0.892;2023-05-27T07:55:46;9.60;;;3.50;;
62927;SDS011;51070;52.236;-0.892;2023-05-27T07:58:12;7.90;;;4.00;;
62927;SDS011;51070;52.236;-0.892;2023-05-27T08:00:38;11.60;;;4.70;;
62927;SDS011;51070;52.236;-0.892;2023-05-27T08:03:04;9.30;;;3.90;;
62927;SDS011;51070;52.236;-0.892;2023-05-27T08:05:29;10.70;;;4.30;;
62927;SDS011;51070;52.236;-0.892;2023-05-27T08:07:55;13.70;;;4.20;;
62927;SDS011;51070;52.236;-0.892;2023-05-27T08:10:20;11.00;;;3.80;;
62927;SDS011;51070;52.236;-0.892;2023-05-27T08:12:46;9.50;;;3.80;;
62927;SDS011;51070;52.236;-0.892;2023-05-27T08:15:11;11.00;;;4.50;;
62927;SDS011;51070;52.236;-0.892;2023-05-27T08:17:36;10.10;;;3.70;;
62927;SDS011;51070;52.236;-0.892;2023-05-27T08:20:02;11.80;;;4.00;;
62927;SDS011;51070;52.236;-0.892;2023-05-27T08:22:28;12.90;;;3.50;;
62927;SDS011;51070;52.236;-0.892;2023-05-27T08:24:54;12.00;;;3.80;;
62927;SDS011;51070;52.236;-0.892;2023-05-27T08:27:20;10.70;;;4.10;;
62927;SDS011;51070;52.236;-0.892;2023-05-27T08:29:46;9.10;;;3.30;;
62927;SDS011;51070;52.236;-0.892;2023-05-27T08:32:11;14.80;;;4.50;;
62927;SDS011;51070;52.236;-0.892;2023-05-27T08:34:37;8.90;;;3.90;;
62927;SDS011;51070;52.236;-0.892;2023-05-27T08:37:03;8.30;;;3.80;;
62927;SDS011;51070;52.236;-0.892;2023-05-27T08:39:30;6.90;;;3.40;;
62927;SDS011;51070;52.236;-0.892;2023-05-27T08:41:56;10.30;;;3.90;;
62927;SDS011;51070;52.236;-0.892;2023-05-27T08:44:24;9.60;;;4.40;;
62927;SDS011;51070;52.236;-0.892;2023-05-27T08:46:50;10.40;;;3.70;;
62927;SDS011;51070;52.236;-0.892;2023-05-27T08:49:16;8.60;;;3.90;;
62927;SDS011;51070;52.236;-0.892;2023-05-27T08:51:42;5.90;;;3.30;;
62927;SDS011;51070;52.236;-0.892;2023-05-27T08:54:10;10.60;;;4.20;;
62927;SDS011;51070;52.236;-0.892;2023-05-27T08:56:36;9.40;;;4.20;;
62927;SDS011;51070;52.236;-0.892;2023-05-27T08:59:02;9.00;;;4.10;;
62927;SDS011;51070;52.236;-0.892;2023-05-27T09:01:28;9.00;;;3.90;;
62927;SDS011;51070;52.236;-0.892;2023-05-27T09:03:56;8.40;;;3.80;;
62927;SDS011;51070;52.236;-0.892;2023-05-27T09:06:21;8.20;;;3.60;;
62927;SDS011;51070;52.236;-0.892;2023-05-27T09:08:47;9.10;;;3.80;;
62927;SDS011;51070;52.236;-0.892;2023-05-27T09:11:22;10.30;;;3.80;;
62927;SDS011;51070;52.236;-0.892;2023-05-27T09:13:52;7.70;;;3.70;;
62927;SDS011;51070;52.236;-0.892;2023-05-27T09:16:21;9.80;;;3.80;;
62927;SDS011;51070;52.236;-0.892;2023-05-27T09:18:47;8.90;;;4.10;;
62927;SDS011;51070;52.236;-0.892;2023-05-27T09:21:13;6.90;;;3.60;;
62927;SDS011;51070;52.236;-0.892;2023-05-27T09:23:39;7.90;;;3.40;;
62927;SDS011;51070;52.236;-0.892;2023-05-27T09:26:08;8.10;;;4.50;;
62927;SDS011;51070;52.236;-0.892;2023-05-27T09:28:35;10.70;;;4.50;;
62927;SDS011;51070;52.236;-0.892;2023-05-27T09:31:03;9.20;;;3.80;;
62927;SDS011;51070;52.236;-0.892;2023-05-27T09:33:36;7.20;;;3.30;;
62927;SDS011;51070;52.236;-0.892;2023-05-27T09:36:03;8.40;;;3.40;;
62927;SDS011;51070;52.236;-0.892;2023-05-27T09:40:57;8.50;;;3.60;;
62927;SDS011;51070;52.236;-0.892;2023-05-27T09:43:24;7.90;;;3.70;;
62927;SDS011;51070;52.236;-0.892;2023-05-27T09:45:59;8.90;;;4.00;;
62927;SDS011;51070;52.236;-0.892;2023-05-27T09:48:28;9.00;;;3.50;;
62927;SDS011;51070;52.236;-0.892;2023-05-27T09:50:56;9.50;;;3.90;;
62927;SDS011;51070;52.236;-0.892;2023-05-27T09:53:23;7.50;;;3.20;;
62927;SDS011;51070;52.236;-0.892;2023-05-27T09:55:51;7.50;;;3.60;;
62927;SDS011;51070;52.236;-0.892;2023-05-27T09:58:18;9.50;;;4.40;;
62927;SDS011;51070;52.236;-0.892;2023-05-27T10:00:45;9.30;;;3.60;;
62927;SDS011;51070;52.236;-0.892;2023-05-27T10:03:13;8.10;;;3.40;;
62927;SDS011;51070;52.236;-0.892;2023-05-27T10:05:39;9.60;;;3.80;;
62927;SDS011;51070;52.236;-0.892;2023-05-27T10:08:05;7.90;;;3.60;;
62927;SDS011;51070;52.236;-0.892;2023-05-27T10:10:31;10.80;;;3.70;;
62927;SDS011;51070;52.236;-0.892;2023-05-27T10:12:58;9.10;;;3.70;;
62927;SDS011;51070;52.236;-0.892;2023-05-27T10:17:56;7.70;;;3.60;;
62927;SDS011;51070;52.236;-0.892;2023-05-27T10:23:24;9.10;;;4.20;;
62927;SDS011;51070;52.236;-0.892;2023-05-27T10:26:00;10.50;;;3.80;;
62927;SDS011;51070;52.236;-0.892;2023-05-27T10:31:03;8.70;;;3.50;;
62927;SDS011;51070;52.236;-0.892;2023-05-27T10:33:37;9.50;;;3.70;;
62927;SDS011;51070;52.236;-0.892;2023-05-27T10:38:35;8.00;;;3.00;;
62927;SDS011;51070;52.236;-0.892;2023-05-27T10:41:02;8.50;;;3.30;;
62927;SDS011;51070;52.236;-0.892;2023-05-27T10:43:29;4.90;;;3.00;;
62927;SDS011;51070;52.236;-0.892;2023-05-27T10:46:06;7.70;;;3.50;;
62927;SDS011;51070;52.236;-0.892;2023-05-27T10:48:33;9.20;;;3.00;;
62927;SDS011;51070;52.236;-0.892;2023-05-27T10:50:59;8.60;;;3.60;;
62927;SDS011;51070;52.236;-0.892;2023-05-27T10:53:26;7.60;;;3.60;;
62927;SDS011;51070;52.236;-0.892;2023-05-27T10:55:52;7.80;;;2.70;;
62927;SDS011;51070;52.236;-0.892;2023-05-27T10:58:18;7.60;;;3.40;;
62927;SDS011;51070;52.236;-0.892;2023-05-27T11:00:45;7.20;;;3.30;;
62927;SDS011;51070;52.236;-0.892;2023-05-27T11:03:21;6.00;;;3.50;;
62927;SDS011;51070;52.236;-0.892;2023-05-27T11:06:02;9.80;;;3.90;;
62927;SDS011;51070;52.236;-0.892;2023-05-27T11:08:29;6.80;;;3.20;;
62927;SDS011;51070;52.236;-0.892;2023-05-27T11:10:58;8.10;;;3.00;;
62927;SDS011;51070;52.236;-0.892;2023-05-27T11:13:31;7.00;;;3.20;;
62927;SDS011;51070;52.236;-0.892;2023-05-27T11:16:08;8.70;;;3.10;;
62927;SDS011;51070;52.236;-0.892;2023-05-27T11:18:41;8.40;;;3.30;;
62927;SDS011;51070;52.236;-0.892;2023-05-27T11:21:08;7.70;;;3.40;;
62927;SDS011;51070;52.236;-0.892;2023-05-27T11:23:45;10.20;;;3.50;;
62927;SDS011;51070;52.236;-0.892;2023-05-27T11:26:22;5.40;;;2.90;;
62927;SDS011;51070;52.236;-0.892;2023-05-27T11:28:52;7.40;;;3.50;;
62927;SDS011;51070;52.236;-0.892;2023-05-27T11:31:21;10.90;;;3.20;;
62927;SDS011;51070;52.236;-0.892;2023-05-27T11:33:52;8.40;;;3.00;;
62927;SDS011;51070;52.236;-0.892;2023-05-27T11:36:18;9.20;;;3.30;;
62927;SDS011;51070;52.236;-0.892;2023-05-27T11:41:19;7.70;;;3.10;;
62927;SDS011;51070;52.236;-0.892;2023-05-27T11:43:54;8.60;;;3.80;;
62927;SDS011;51070;52.236;-0.892;2023-05-27T11:49:08;8.50;;;3.10;;
62927;SDS011;51070;52.236;-0.892;2023-05-27T11:51:39;6.10;;;3.20;;
62927;SDS011;51070;52.236;-0.892;2023-05-27T11:54:06;7.10;;;3.00;;
62927;SDS011;51070;52.236;-0.892;2023-05-27T11:56:32;8.30;;;3.70;;
62927;SDS011;51070;52.236;-0.892;2023-05-27T11:58:58;6.60;;;2.80;;
62927;SDS011;51070;52.236;-0.892;2023-05-27T12:01:24;7.80;;;2.70;;
62927;SDS011;51070;52.236;-0.892;2023-05-27T12:03:51;8.90;;;3.40;;
62927;SDS011;51070;52.236;-0.892;2023-05-27T12:06:16;8.40;;;3.30;;
62927;SDS011;51070;52.236;-0.892;2023-05-27T12:08:41;7.00;;;2.60;;
62927;SDS011;51070;52.236;-0.892;2023-05-27T12:11:07;6.30;;;3.20;;
62927;SDS011;51070;52.236;-0.892;2023-05-27T12:13:33;8.60;;;3.40;;
62927;SDS011;51070;52.236;-0.892;2023-05-27T12:15:58;9.00;;;3.90;;
62927;SDS011;51070;52.236;-0.892;2023-05-27T12:18:24;6.60;;;3.20;;
62927;SDS011;51070;52.236;-0.892;2023-05-27T12:20:49;6.40;;;3.00;;
62927;SDS011;51070;52.236;-0.892;2023-05-27T12:23:15;10.20;;;3.70;;
62927;SDS011;51070;52.236;-0.892;2023-05-27T12:25:41;8.50;;;3.20;;
62927;SDS011;51070;52.236;-0.892;2023-05-27T12:28:07;7.60;;;2.80;;
62927;SDS011;51070;52.236;-0.892;2023-05-27T12:30:35;6.00;;;2.90;;
62927;SDS011;51070;52.236;-0.892;2023-05-27T12:33:04;6.20;;;3.00;;
62927;SDS011;51070;52.236;-0.892;2023-05-27T12:35:31;7.70;;;3.40;;
62927;SDS011;51070;52.236;-0.892;2023-05-27T12:37:57;8.90;;;2.90;;
62927;SDS011;51070;52.236;-0.892;2023-05-27T12:40:24;7.00;;;3.10;;
62927;SDS011;51070;52.236;-0.892;2023-05-27T12:42:50;8.40;;;3.40;;
62927;SDS011;51070;52.236;-0.892;2023-05-27T12:45:16;9.10;;;3.20;;
62927;SDS011;51070;52.236;-0.892;2023-05-27T12:47:42;8.10;;;3.60;;
62927;SDS011;51070;52.236;-0.892;2023-05-27T12:50:07;7.50;;;3.70;;
62927;SDS011;51070;52.236;-0.892;2023-05-27T12:52:33;7.50;;;3.00;;
62927;SDS011;51070;52.236;-0.892;2023-05-27T12:55:00;7.60;;;4.30;;
62927;SDS011;51070;52.236;-0.892;2023-05-27T12:57:26;7.20;;;3.20;;
62927;SDS011;51070;52.236;-0.892;2023-05-27T12:59:52;9.10;;;3.20;;
62927;SDS011;51070;52.236;-0.892;2023-05-27T13:02:17;10.80;;;3.60;;
62927;SDS011;51070;52.236;-0.892;2023-05-27T13:04:43;6.80;;;3.20;;
62927;SDS011;51070;52.236;-0.892;2023-05-27T13:07:09;6.60;;;3.40;;
62927;SDS011;51070;52.236;-0.892;2023-05-27T13:09:36;9.20;;;3.80;;
62927;SDS011;51070;52.236;-0.892;2023-05-27T13:12:03;6.90;;;3.20;;
62927;SDS011;51070;52.236;-0.892;2023-05-27T13:14:29;6.90;;;3.00;;
62927;SDS011;51070;52.236;-0.892;2023-05-27T13:16:55;8.00;;;3.70;;
62927;SDS011;51070;52.236;-0.892;2023-05-27T13:19:20;7.70;;;3.20;;
62927;SDS011;51070;52.236;-0.892;2023-05-27T13:21:47;8.20;;;3.60;;
62927;SDS011;51070;52.236;-0.892;2023-05-27T13:24:12;9.60;;;4.10;;
62927;SDS011;51070;52.236;-0.892;2023-05-27T13:26:37;8.50;;;3.70;;
62927;SDS011;51070;52.236;-0.892;2023-05-27T13:29:03;7.40;;;3.70;;
62927;SDS011;51070;52.236;-0.892;2023-05-27T13:31:28;9.30;;;4.50;;
62927;SDS011;51070;52.236;-0.892;2023-05-27T13:33:54;7.00;;;4.30;;
62927;SDS011;51070;52.236;-0.892;2023-05-27T13:36:19;7.80;;;4.00;;
62927;SDS011;51070;52.236;-0.892;2023-05-27T13:38:44;6.90;;;3.40;;
62927;SDS011;51070;52.236;-0.892;2023-05-27T13:41:10;6.70;;;3.20;;
62927;SDS011;51070;52.236;-0.892;2023-05-27T13:43:35;7.50;;;3.90;;
62927;SDS011;51070;52.236;-0.892;2023-05-27T13:46:01;8.30;;;3.70;;
62927;SDS011;51070;52.236;-0.892;2023-05-27T13:48:26;8.50;;;3.80;;
62927;SDS011;51070;52.236;-0.892;2023-05-27T13:50:51;8.30;;;3.90;;
62927;SDS011;51070;52.236;-0.892;2023-05-27T13:53:17;9.40;;;3.80;;
62927;SDS011;51070;52.236;-0.892;2023-05-27T13:55:42;7.00;;;3.60;;
62927;SDS011;51070;52.236;-0.892;2023-05-27T13:58:08;7.50;;;4.00;;
62927;SDS011;51070;52.236;-0.892;2023-05-27T14:00:33;7.90;;;3.80;;
62927;SDS011;51070;52.236;-0.892;2023-05-27T14:03:00;8.50;;;3.60;;
62927;SDS011;51070;52.236;-0.892;2023-05-27T14:05:25;7.40;;;4.10;;
62927;SDS011;51070;52.236;-0.892;2023-05-27T14:07:52;8.60;;;3.90;;
62927;SDS011;51070;52.236;-0.892;2023-05-27T14:10:17;9.00;;;4.80;;
62927;SDS011;51070;52.236;-0.892;2023-05-27T14:12:43;7.40;;;4.10;;
62927;SDS011;51070;52.236;-0.892;2023-05-27T14:15:09;7.90;;;4.10;;
62927;SDS011;51070;52.236;-0.892;2023-05-27T14:17:35;7.50;;;3.70;;
62927;SDS011;51070;52.236;-0.892;2023-05-27T14:20:01;8.70;;;3.90;;
62927;SDS011;51070;52.236;-0.892;2023-05-27T14:22:27;8.20;;;4.00;;
62927;SDS011;51070;52.236;-0.892;2023-05-27T14:24:52;8.20;;;4.00;;
62927;SDS011;51070;52.236;-0.892;2023-05-27T14:27:17;8.60;;;4.00;;
62927;SDS011;51070;52.236;-0.892;2023-05-27T14:29:43;7.30;;;3.80;;
62927;SDS011;51070;52.236;-0.892;2023-05-27T14:32:08;7.60;;;4.30;;
62927;SDS011;51070;52.236;-0.892;2023-05-27T14:34:33;9.90;;;4.90;;
62927;SDS011;51070;52.236;-0.892;2023-05-27T14:36:59;8.80;;;4.10;;
62927;SDS011;51070;52.236;-0.892;2023-05-27T14:39:25;6.00;;;3.60;;
62927;SDS011;51070;52.236;-0.892;2023-05-27T14:41:50;8.60;;;3.90;;
62927;SDS011;51070;52.236;-0.892;2023-05-27T14:44:16;11.40;;;4.50;;
62927;SDS011;51070;52.236;-0.892;2023-05-27T14:46:41;7.20;;;3.90;;